sensor_id;sensor_type;location;lat;lon;timestamp;P1;durP1;ratioP1;P2;durP2;ratioP2
37655;SDS011;23498;50.958;3.124;2023-05-07T00:00:32;15.20;;;7.88;;
37655;SDS011;23498;50.958;3.124;2023-05-07T00:02:59;13.70;;;7.20;;
37655;SDS011;23498;50.958;3.124;2023-05-07T00:05:26;15.90;;;8.00;;
37655;SDS011;23498;50.958;3.124;2023-05-07T00:07:52;16.88;;;7.95;;
37655;SDS011;23498;50.958;3.124;2023-05-07T00:10:18;15.25;;;8.43;;
37655;SDS011;23498;50.958;3.124;2023-05-07T00:12:44;17.65;;;9.50;;
37655;SDS011;23498;50.958;3.124;2023-05-07T00:15:10;14.25;;;7.78;;
37655;SDS011;23498;50.958;3.124;2023-05-07T00:17:36;16.08;;;8.13;;
37655;SDS011;23498;50.958;3.124;2023-05-07T00:20:03;14.05;;;7.82;;
37655;SDS011;23498;50.958;3.124;2023-05-07T00:22:30;14.50;;;7.90;;
37655;SDS011;23498;50.958;3.124;2023-05-07T00:24:57;16.75;;;8.10;;
37655;SDS011;23498;50.958;3.124;2023-05-07T00:27:24;15.25;;;7.28;;
37655;SDS011;23498;50.958;3.124;2023-05-07T00:29:50;17.08;;;6.85;;
37655;SDS011;23498;50.958;3.124;2023-05-07T00:32:16;11.95;;;7.07;;
37655;SDS011;23498;50.958;3.124;2023-05-07T00:34:42;16.85;;;7.70;;
37655;SDS011;23498;50.958;3.124;2023-05-07T00:37:09;15.35;;;7.65;;
37655;SDS011;23498;50.958;3.124;2023-05-07T00:39:36;13.70;;;7.18;;
37655;SDS011;23498;50.958;3.124;2023-05-07T00:42:03;14.65;;;7.32;;
37655;SDS011;23498;50.958;3.124;2023-05-07T00:44:29;13.38;;;8.30;;
37655;SDS011;23498;50.958;3.124;2023-05-07T00:46:55;15.85;;;7.88;;
37655;SDS011;23498;50.958;3.124;2023-05-07T00:49:22;14.98;;;8.25;;
37655;SDS011;23498;50.958;3.124;2023-05-07T00:51:49;14.30;;;7.72;;
37655;SDS011;23498;50.958;3.124;2023-05-07T00:54:16;15.10;;;8.05;;
37655;SDS011;23498;50.958;3.124;2023-05-07T00:56:42;19.15;;;8.85;;
37655;SDS011;23498;50.958;3.124;2023-05-07T00:59:08;16.95;;;9.18;;
37655;SDS011;23498;50.958;3.124;2023-05-07T01:01:34;18.17;;;9.38;;
37655;SDS011;23498;50.958;3.124;2023-05-07T01:04:01;18.73;;;8.70;;
37655;SDS011;23498;50.958;3.124;2023-05-07T01:06:27;15.63;;;9.90;;
37655;SDS011;23498;50.958;3.124;2023-05-07T01:08:54;17.08;;;9.63;;
37655;SDS011;23498;50.958;3.124;2023-05-07T01:11:22;16.25;;;9.65;;
37655;SDS011;23498;50.958;3.124;2023-05-07T01:13:48;18.83;;;9.50;;
37655;SDS011;23498;50.958;3.124;2023-05-07T01:16:15;18.23;;;9.93;;
37655;SDS011;23498;50.958;3.124;2023-05-07T01:18:41;19.42;;;9.40;;
37655;SDS011;23498;50.958;3.124;2023-05-07T01:21:07;17.48;;;9.15;;
37655;SDS011;23498;50.958;3.124;2023-05-07T01:23:36;15.90;;;9.77;;
37655;SDS011;23498;50.958;3.124;2023-05-07T01:26:02;17.20;;;9.40;;
37655;SDS011;23498;50.958;3.124;2023-05-07T01:28:28;17.35;;;9.85;;
37655;SDS011;23498;50.958;3.124;2023-05-07T01:30:55;20.52;;;9.55;;
37655;SDS011;23498;50.958;3.124;2023-05-07T01:33:26;14.80;;;8.80;;
37655;SDS011;23498;50.958;3.124;2023-05-07T01:35:56;12.70;;;8.45;;
37655;SDS011;23498;50.958;3.124;2023-05-07T01:38:25;15.07;;;8.68;;
37655;SDS011;23498;50.958;3.124;2023-05-07T01:40:51;13.35;;;9.13;;
37655;SDS011;23498;50.958;3.124;2023-05-07T01:43:17;19.08;;;10.18;;
37655;SDS011;23498;50.958;3.124;2023-05-07T01:45:43;14.85;;;8.43;;
37655;SDS011;23498;50.958;3.124;2023-05-07T01:48:10;14.10;;;9.57;;
37655;SDS011;23498;50.958;3.124;2023-05-07T01:50:37;17.25;;;9.02;;
37655;SDS011;23498;50.958;3.124;2023-05-07T01:53:03;15.90;;;9.57;;
37655;SDS011;23498;50.958;3.124;2023-05-07T01:55:29;14.45;;;9.55;;
37655;SDS011;23498;50.958;3.124;2023-05-07T01:57:55;15.02;;;9.45;;
37655;SDS011;23498;50.958;3.124;2023-05-07T02:00:21;18.45;;;8.88;;
37655;SDS011;23498;50.958;3.124;2023-05-07T02:02:47;14.32;;;8.98;;
37655;SDS011;23498;50.958;3.124;2023-05-07T02:05:13;15.80;;;8.88;;
37655;SDS011;23498;50.958;3.124;2023-05-07T02:07:39;17.75;;;9.25;;
37655;SDS011;23498;50.958;3.124;2023-05-07T02:10:05;17.65;;;8.70;;
37655;SDS011;23498;50.958;3.124;2023-05-07T02:15:11;13.68;;;8.93;;
37655;SDS011;23498;50.958;3.124;2023-05-07T02:20:23;19.70;;;9.07;;
37655;SDS011;23498;50.958;3.124;2023-05-07T02:22:49;17.25;;;8.35;;
37655;SDS011;23498;50.958;3.124;2023-05-07T02:25:15;15.60;;;8.80;;
37655;SDS011;23498;50.958;3.124;2023-05-07T02:27:41;18.05;;;8.98;;
37655;SDS011;23498;50.958;3.124;2023-05-07T02:30:07;13.65;;;7.38;;
37655;SDS011;23498;50.958;3.124;2023-05-07T02:32:33;13.98;;;8.13;;
37655;SDS011;23498;50.958;3.124;2023-05-07T02:34:59;19.10;;;8.45;;
37655;SDS011;23498;50.958;3.124;2023-05-07T02:37:26;13.13;;;8.55;;
37655;SDS011;23498;50.958;3.124;2023-05-07T02:39:52;14.13;;;8.63;;
37655;SDS011;23498;50.958;3.124;2023-05-07T02:42:18;12.30;;;7.47;;
37655;SDS011;23498;50.958;3.124;2023-05-07T02:44:44;16.95;;;8.30;;
37655;SDS011;23498;50.958;3.124;2023-05-07T02:47:10;15.07;;;7.70;;
37655;SDS011;23498;50.958;3.124;2023-05-07T02:49:38;15.20;;;8.98;;
37655;SDS011;23498;50.958;3.124;2023-05-07T02:52:04;15.57;;;8.85;;
37655;SDS011;23498;50.958;3.124;2023-05-07T02:54:30;14.07;;;8.88;;
37655;SDS011;23498;50.958;3.124;2023-05-07T02:56:56;13.40;;;8.38;;
37655;SDS011;23498;50.958;3.124;2023-05-07T02:59:23;19.98;;;9.73;;
37655;SDS011;23498;50.958;3.124;2023-05-07T03:01:49;13.23;;;9.13;;
37655;SDS011;23498;50.958;3.124;2023-05-07T03:04:15;12.93;;;9.07;;
37655;SDS011;23498;50.958;3.124;2023-05-07T03:06:41;15.20;;;9.77;;
37655;SDS011;23498;50.958;3.124;2023-05-07T03:09:07;19.85;;;9.80;;
37655;SDS011;23498;50.958;3.124;2023-05-07T03:11:33;17.40;;;9.27;;
37655;SDS011;23498;50.958;3.124;2023-05-07T03:14:00;16.58;;;9.82;;
37655;SDS011;23498;50.958;3.124;2023-05-07T03:16:26;18.83;;;9.40;;
37655;SDS011;23498;50.958;3.124;2023-05-07T03:18:53;16.33;;;9.10;;
37655;SDS011;23498;50.958;3.124;2023-05-07T03:21:19;16.67;;;9.85;;
37655;SDS011;23498;50.958;3.124;2023-05-07T03:23:45;17.58;;;8.93;;
37655;SDS011;23498;50.958;3.124;2023-05-07T03:26:11;17.40;;;9.88;;
37655;SDS011;23498;50.958;3.124;2023-05-07T03:28:37;19.40;;;9.35;;
37655;SDS011;23498;50.958;3.124;2023-05-07T03:31:03;16.33;;;8.75;;
37655;SDS011;23498;50.958;3.124;2023-05-07T03:33:30;15.25;;;8.68;;
37655;SDS011;23498;50.958;3.124;2023-05-07T03:35:56;14.27;;;8.48;;
37655;SDS011;23498;50.958;3.124;2023-05-07T03:38:22;13.05;;;8.13;;
37655;SDS011;23498;50.958;3.124;2023-05-07T03:40:48;17.77;;;9.90;;
37655;SDS011;23498;50.958;3.124;2023-05-07T03:43:14;18.67;;;9.57;;
37655;SDS011;23498;50.958;3.124;2023-05-07T03:45:40;15.38;;;9.32;;
37655;SDS011;23498;50.958;3.124;2023-05-07T03:48:06;14.43;;;9.65;;
37655;SDS011;23498;50.958;3.124;2023-05-07T03:50:32;16.92;;;9.57;;
37655;SDS011;23498;50.958;3.124;2023-05-07T03:52:58;16.98;;;9.00;;
37655;SDS011;23498;50.958;3.124;2023-05-07T03:55:24;13.95;;;8.80;;
37655;SDS011;23498;50.958;3.124;2023-05-07T03:57:50;14.00;;;9.60;;
37655;SDS011;23498;50.958;3.124;2023-05-07T04:00:16;13.98;;;9.20;;
37655;SDS011;23498;50.958;3.124;2023-05-07T04:02:42;17.23;;;10.82;;
37655;SDS011;23498;50.958;3.124;2023-05-07T04:05:08;16.98;;;10.18;;
37655;SDS011;23498;50.958;3.124;2023-05-07T04:07:34;13.27;;;9.50;;
37655;SDS011;23498;50.958;3.124;2023-05-07T04:10:00;16.30;;;10.35;;
37655;SDS011;23498;50.958;3.124;2023-05-07T04:12:27;15.52;;;9.77;;
37655;SDS011;23498;50.958;3.124;2023-05-07T04:14:53;19.15;;;10.55;;
37655;SDS011;23498;50.958;3.124;2023-05-07T04:17:19;13.70;;;8.82;;
37655;SDS011;23498;50.958;3.124;2023-05-07T04:19:45;12.35;;;8.15;;
37655;SDS011;23498;50.958;3.124;2023-05-07T04:22:11;16.15;;;9.27;;
37655;SDS011;23498;50.958;3.124;2023-05-07T04:24:37;14.90;;;9.75;;
37655;SDS011;23498;50.958;3.124;2023-05-07T04:27:03;16.17;;;10.65;;
37655;SDS011;23498;50.958;3.124;2023-05-07T04:29:31;20.10;;;10.13;;
37655;SDS011;23498;50.958;3.124;2023-05-07T04:31:57;15.88;;;10.27;;
37655;SDS011;23498;50.958;3.124;2023-05-07T04:34:23;18.17;;;9.85;;
37655;SDS011;23498;50.958;3.124;2023-05-07T04:36:49;14.63;;;9.77;;
37655;SDS011;23498;50.958;3.124;2023-05-07T04:39:15;17.45;;;9.95;;
37655;SDS011;23498;50.958;3.124;2023-05-07T04:41:41;16.27;;;10.20;;
37655;SDS011;23498;50.958;3.124;2023-05-07T04:44:07;18.77;;;10.20;;
37655;SDS011;23498;50.958;3.124;2023-05-07T04:46:34;16.45;;;10.20;;
37655;SDS011;23498;50.958;3.124;2023-05-07T04:49:00;18.17;;;10.68;;
37655;SDS011;23498;50.958;3.124;2023-05-07T04:51:26;15.88;;;11.77;;
37655;SDS011;23498;50.958;3.124;2023-05-07T04:53:52;19.02;;;11.27;;
37655;SDS011;23498;50.958;3.124;2023-05-07T04:56:18;21.50;;;10.63;;
37655;SDS011;23498;50.958;3.124;2023-05-07T04:58:45;17.20;;;10.15;;
37655;SDS011;23498;50.958;3.124;2023-05-07T05:01:11;16.75;;;10.32;;
37655;SDS011;23498;50.958;3.124;2023-05-07T05:03:37;18.35;;;11.05;;
37655;SDS011;23498;50.958;3.124;2023-05-07T05:06:04;18.35;;;11.43;;
37655;SDS011;23498;50.958;3.124;2023-05-07T05:08:30;16.45;;;10.73;;
37655;SDS011;23498;50.958;3.124;2023-05-07T05:10:56;16.00;;;11.07;;
37655;SDS011;23498;50.958;3.124;2023-05-07T05:13:23;17.85;;;10.90;;
37655;SDS011;23498;50.958;3.124;2023-05-07T05:15:49;18.80;;;11.20;;
37655;SDS011;23498;50.958;3.124;2023-05-07T05:18:15;18.90;;;11.25;;
37655;SDS011;23498;50.958;3.124;2023-05-07T05:20:41;19.85;;;11.35;;
37655;SDS011;23498;50.958;3.124;2023-05-07T05:23:07;22.38;;;11.55;;
37655;SDS011;23498;50.958;3.124;2023-05-07T05:25:33;15.32;;;11.32;;
37655;SDS011;23498;50.958;3.124;2023-05-07T05:27:59;18.15;;;11.13;;
37655;SDS011;23498;50.958;3.124;2023-05-07T05:30:26;20.23;;;12.55;;
37655;SDS011;23498;50.958;3.124;2023-05-07T05:32:52;19.55;;;12.07;;
37655;SDS011;23498;50.958;3.124;2023-05-07T05:35:18;19.75;;;12.02;;
37655;SDS011;23498;50.958;3.124;2023-05-07T05:37:44;21.98;;;12.27;;
37655;SDS011;23498;50.958;3.124;2023-05-07T05:40:10;19.52;;;12.18;;
37655;SDS011;23498;50.958;3.124;2023-05-07T05:42:36;21.10;;;11.52;;
37655;SDS011;23498;50.958;3.124;2023-05-07T05:45:02;18.92;;;11.25;;
37655;SDS011;23498;50.958;3.124;2023-05-07T05:47:29;19.08;;;12.13;;
37655;SDS011;23498;50.958;3.124;2023-05-07T05:49:55;18.65;;;11.73;;
37655;SDS011;23498;50.958;3.124;2023-05-07T05:52:21;20.65;;;11.75;;
37655;SDS011;23498;50.958;3.124;2023-05-07T05:54:48;20.33;;;12.13;;
37655;SDS011;23498;50.958;3.124;2023-05-07T05:57:15;17.55;;;11.35;;
37655;SDS011;23498;50.958;3.124;2023-05-07T05:59:41;18.45;;;11.93;;
37655;SDS011;23498;50.958;3.124;2023-05-07T06:02:07;18.83;;;11.70;;
37655;SDS011;23498;50.958;3.124;2023-05-07T06:04:33;20.48;;;11.57;;
37655;SDS011;23498;50.958;3.124;2023-05-07T06:06:59;19.83;;;11.93;;
37655;SDS011;23498;50.958;3.124;2023-05-07T06:09:25;18.67;;;11.50;;
37655;SDS011;23498;50.958;3.124;2023-05-07T06:11:51;17.40;;;11.35;;
37655;SDS011;23498;50.958;3.124;2023-05-07T06:14:17;18.13;;;11.38;;
37655;SDS011;23498;50.958;3.124;2023-05-07T06:16:43;23.00;;;11.15;;
37655;SDS011;23498;50.958;3.124;2023-05-07T06:19:09;19.13;;;10.93;;
37655;SDS011;23498;50.958;3.124;2023-05-07T06:21:35;19.63;;;11.15;;
37655;SDS011;23498;50.958;3.124;2023-05-07T06:24:01;21.90;;;11.90;;
37655;SDS011;23498;50.958;3.124;2023-05-07T06:26:27;18.85;;;11.18;;
37655;SDS011;23498;50.958;3.124;2023-05-07T06:28:53;18.10;;;11.73;;
37655;SDS011;23498;50.958;3.124;2023-05-07T06:31:19;18.85;;;11.90;;
37655;SDS011;23498;50.958;3.124;2023-05-07T06:33:45;20.75;;;12.43;;
37655;SDS011;23498;50.958;3.124;2023-05-07T06:36:12;20.88;;;12.82;;
37655;SDS011;23498;50.958;3.124;2023-05-07T06:38:38;22.52;;;13.43;;
37655;SDS011;23498;50.958;3.124;2023-05-07T06:41:05;20.23;;;12.65;;
37655;SDS011;23498;50.958;3.124;2023-05-07T06:43:31;22.40;;;13.98;;
37655;SDS011;23498;50.958;3.124;2023-05-07T06:45:57;21.50;;;13.27;;
37655;SDS011;23498;50.958;3.124;2023-05-07T06:48:23;23.80;;;13.80;;
37655;SDS011;23498;50.958;3.124;2023-05-07T06:50:49;26.77;;;14.30;;
37655;SDS011;23498;50.958;3.124;2023-05-07T06:53:15;20.25;;;13.30;;
37655;SDS011;23498;50.958;3.124;2023-05-07T06:55:41;20.92;;;14.18;;
37655;SDS011;23498;50.958;3.124;2023-05-07T06:58:07;22.35;;;14.48;;
37655;SDS011;23498;50.958;3.124;2023-05-07T07:00:33;22.58;;;13.25;;
37655;SDS011;23498;50.958;3.124;2023-05-07T07:03:00;22.70;;;13.13;;
37655;SDS011;23498;50.958;3.124;2023-05-07T07:05:26;21.70;;;12.30;;
37655;SDS011;23498;50.958;3.124;2023-05-07T07:07:52;20.30;;;12.57;;
37655;SDS011;23498;50.958;3.124;2023-05-07T07:10:23;20.42;;;12.40;;
37655;SDS011;23498;50.958;3.124;2023-05-07T07:12:49;16.10;;;11.35;;
37655;SDS011;23498;50.958;3.124;2023-05-07T07:15:17;20.58;;;10.85;;
37655;SDS011;23498;50.958;3.124;2023-05-07T07:17:43;19.20;;;10.55;;
37655;SDS011;23498;50.958;3.124;2023-05-07T07:20:09;23.23;;;11.63;;
37655;SDS011;23498;50.958;3.124;2023-05-07T07:22:35;18.05;;;11.27;;
37655;SDS011;23498;50.958;3.124;2023-05-07T07:25:01;21.13;;;11.60;;
37655;SDS011;23498;50.958;3.124;2023-05-07T07:27:28;19.63;;;10.35;;
37655;SDS011;23498;50.958;3.124;2023-05-07T07:29:54;21.02;;;11.23;;
37655;SDS011;23498;50.958;3.124;2023-05-07T07:32:20;16.30;;;11.07;;
37655;SDS011;23498;50.958;3.124;2023-05-07T07:34:46;21.33;;;11.25;;
37655;SDS011;23498;50.958;3.124;2023-05-07T07:37:12;19.92;;;11.35;;
37655;SDS011;23498;50.958;3.124;2023-05-07T07:39:38;16.55;;;10.85;;
37655;SDS011;23498;50.958;3.124;2023-05-07T07:42:04;17.05;;;11.35;;
37655;SDS011;23498;50.958;3.124;2023-05-07T07:44:30;17.92;;;11.60;;
37655;SDS011;23498;50.958;3.124;2023-05-07T07:46:56;16.17;;;11.35;;
37655;SDS011;23498;50.958;3.124;2023-05-07T07:49:22;18.10;;;11.77;;
37655;SDS011;23498;50.958;3.124;2023-05-07T07:51:48;17.95;;;11.93;;
37655;SDS011;23498;50.958;3.124;2023-05-07T07:54:14;17.05;;;12.52;;
37655;SDS011;23498;50.958;3.124;2023-05-07T07:56:40;21.13;;;12.90;;
37655;SDS011;23498;50.958;3.124;2023-05-07T07:59:06;21.05;;;12.85;;
37655;SDS011;23498;50.958;3.124;2023-05-07T08:01:32;18.67;;;12.15;;
37655;SDS011;23498;50.958;3.124;2023-05-07T08:03:58;23.08;;;13.32;;
37655;SDS011;23498;50.958;3.124;2023-05-07T08:06:24;20.05;;;12.10;;
37655;SDS011;23498;50.958;3.124;2023-05-07T08:08:51;19.40;;;12.57;;
37655;SDS011;23498;50.958;3.124;2023-05-07T08:11:17;17.70;;;12.40;;
37655;SDS011;23498;50.958;3.124;2023-05-07T08:13:43;18.73;;;12.35;;
37655;SDS011;23498;50.958;3.124;2023-05-07T08:16:10;19.23;;;12.63;;
37655;SDS011;23498;50.958;3.124;2023-05-07T08:18:36;20.17;;;12.30;;
37655;SDS011;23498;50.958;3.124;2023-05-07T08:21:02;20.67;;;13.18;;
37655;SDS011;23498;50.958;3.124;2023-05-07T08:23:28;15.82;;;11.32;;
37655;SDS011;23498;50.958;3.124;2023-05-07T08:25:54;18.70;;;10.50;;
37655;SDS011;23498;50.958;3.124;2023-05-07T08:28:20;16.25;;;8.90;;
37655;SDS011;23498;50.958;3.124;2023-05-07T08:30:46;13.40;;;8.23;;
37655;SDS011;23498;50.958;3.124;2023-05-07T08:33:12;19.45;;;7.45;;
37655;SDS011;23498;50.958;3.124;2023-05-07T08:35:38;13.02;;;7.35;;
37655;SDS011;23498;50.958;3.124;2023-05-07T08:38:04;12.98;;;6.97;;
37655;SDS011;23498;50.958;3.124;2023-05-07T08:40:31;12.88;;;7.28;;
37655;SDS011;23498;50.958;3.124;2023-05-07T08:42:59;11.02;;;7.38;;
37655;SDS011;23498;50.958;3.124;2023-05-07T08:45:26;13.85;;;8.25;;
37655;SDS011;23498;50.958;3.124;2023-05-07T08:47:55;14.05;;;8.55;;
37655;SDS011;23498;50.958;3.124;2023-05-07T08:50:24;14.93;;;9.50;;
37655;SDS011;23498;50.958;3.124;2023-05-07T08:52:50;14.98;;;10.10;;
37655;SDS011;23498;50.958;3.124;2023-05-07T08:55:16;12.85;;;10.43;;
37655;SDS011;23498;50.958;3.124;2023-05-07T08:57:42;18.10;;;11.13;;
37655;SDS011;23498;50.958;3.124;2023-05-07T09:00:08;17.98;;;12.35;;
37655;SDS011;23498;50.958;3.124;2023-05-07T09:02:35;15.05;;;11.48;;
37655;SDS011;23498;50.958;3.124;2023-05-07T09:05:01;16.65;;;10.15;;
37655;SDS011;23498;50.958;3.124;2023-05-07T09:07:27;17.17;;;10.48;;
37655;SDS011;23498;50.958;3.124;2023-05-07T09:09:53;13.10;;;9.98;;
37655;SDS011;23498;50.958;3.124;2023-05-07T09:12:20;14.95;;;8.80;;
37655;SDS011;23498;50.958;3.124;2023-05-07T09:14:47;14.73;;;9.13;;
37655;SDS011;23498;50.958;3.124;2023-05-07T09:17:13;15.88;;;10.60;;
37655;SDS011;23498;50.958;3.124;2023-05-07T09:19:39;16.67;;;11.57;;
37655;SDS011;23498;50.958;3.124;2023-05-07T09:22:05;19.08;;;12.82;;
37655;SDS011;23498;50.958;3.124;2023-05-07T09:24:35;18.00;;;13.13;;
37655;SDS011;23498;50.958;3.124;2023-05-07T09:27:03;21.80;;;14.23;;
37655;SDS011;23498;50.958;3.124;2023-05-07T09:29:29;19.65;;;14.10;;
37655;SDS011;23498;50.958;3.124;2023-05-07T09:32:00;17.17;;;12.90;;
37655;SDS011;23498;50.958;3.124;2023-05-07T09:34:26;19.35;;;12.55;;
37655;SDS011;23498;50.958;3.124;2023-05-07T09:36:53;19.35;;;12.77;;
37655;SDS011;23498;50.958;3.124;2023-05-07T09:39:19;18.80;;;14.23;;
37655;SDS011;23498;50.958;3.124;2023-05-07T09:41:48;20.23;;;13.40;;
37655;SDS011;23498;50.958;3.124;2023-05-07T09:44:17;17.27;;;13.65;;
37655;SDS011;23498;50.958;3.124;2023-05-07T09:46:43;18.25;;;13.73;;
37655;SDS011;23498;50.958;3.124;2023-05-07T09:49:16;15.25;;;12.38;;
37655;SDS011;23498;50.958;3.124;2023-05-07T09:51:50;15.73;;;11.15;;
37655;SDS011;23498;50.958;3.124;2023-05-07T09:54:17;15.68;;;10.93;;
37655;SDS011;23498;50.958;3.124;2023-05-07T09:56:43;13.80;;;9.70;;
37655;SDS011;23498;50.958;3.124;2023-05-07T09:59:10;13.40;;;9.48;;
37655;SDS011;23498;50.958;3.124;2023-05-07T10:01:38;12.68;;;9.48;;
37655;SDS011;23498;50.958;3.124;2023-05-07T10:04:07;15.68;;;9.85;;
37655;SDS011;23498;50.958;3.124;2023-05-07T10:06:36;14.23;;;10.27;;
37655;SDS011;23498;50.958;3.124;2023-05-07T10:09:05;13.20;;;9.38;;
37655;SDS011;23498;50.958;3.124;2023-05-07T10:11:34;17.90;;;10.38;;
37655;SDS011;23498;50.958;3.124;2023-05-07T10:14:01;15.85;;;10.75;;
37655;SDS011;23498;50.958;3.124;2023-05-07T10:16:27;14.30;;;10.10;;
37655;SDS011;23498;50.958;3.124;2023-05-07T10:18:54;14.30;;;8.90;;
37655;SDS011;23498;50.958;3.124;2023-05-07T10:21:21;10.18;;;6.10;;
37655;SDS011;23498;50.958;3.124;2023-05-07T10:23:49;8.75;;;5.40;;
37655;SDS011;23498;50.958;3.124;2023-05-07T10:26:15;11.30;;;5.68;;
37655;SDS011;23498;50.958;3.124;2023-05-07T10:28:45;9.98;;;4.75;;
37655;SDS011;23498;50.958;3.124;2023-05-07T10:33:41;7.53;;;3.63;;
37655;SDS011;23498;50.958;3.124;2023-05-07T10:36:08;13.65;;;8.30;;
37655;SDS011;23498;50.958;3.124;2023-05-07T10:38:34;11.70;;;7.30;;
37655;SDS011;23498;50.958;3.124;2023-05-07T10:41:00;10.32;;;4.28;;
37655;SDS011;23498;50.958;3.124;2023-05-07T10:43:39;8.57;;;4.55;;
37655;SDS011;23498;50.958;3.124;2023-05-07T10:46:14;9.18;;;4.60;;
37655;SDS011;23498;50.958;3.124;2023-05-07T10:51:25;14.13;;;4.25;;
37655;SDS011;23498;50.958;3.124;2023-05-07T11:01:49;9.90;;;5.35;;
37655;SDS011;23498;50.958;3.124;2023-05-07T11:04:16;8.88;;;4.72;;
37655;SDS011;23498;50.958;3.124;2023-05-07T11:15:04;8.77;;;4.43;;
37655;SDS011;23498;50.958;3.124;2023-05-07T11:17:30;8.95;;;4.78;;
37655;SDS011;23498;50.958;3.124;2023-05-07T11:19:59;10.48;;;4.50;;
37655;SDS011;23498;50.958;3.124;2023-05-07T11:22:43;6.65;;;4.10;;
37655;SDS011;23498;50.958;3.124;2023-05-07T11:25:09;9.27;;;6.30;;
37655;SDS011;23498;50.958;3.124;2023-05-07T11:27:36;12.27;;;8.55;;
37655;SDS011;23498;50.958;3.124;2023-05-07T11:30:02;19.15;;;11.57;;
37655;SDS011;23498;50.958;3.124;2023-05-07T11:32:28;13.55;;;11.00;;
37655;SDS011;23498;50.958;3.124;2023-05-07T11:34:55;17.27;;;11.48;;
37655;SDS011;23498;50.958;3.124;2023-05-07T11:37:22;13.93;;;9.25;;
37655;SDS011;23498;50.958;3.124;2023-05-07T11:39:48;13.38;;;8.60;;
37655;SDS011;23498;50.958;3.124;2023-05-07T11:42:27;9.60;;;7.03;;
37655;SDS011;23498;50.958;3.124;2023-05-07T11:44:53;10.27;;;7.00;;
37655;SDS011;23498;50.958;3.124;2023-05-07T11:47:19;10.32;;;6.25;;
37655;SDS011;23498;50.958;3.124;2023-05-07T11:49:49;8.95;;;5.97;;
37655;SDS011;23498;50.958;3.124;2023-05-07T11:52:16;10.77;;;6.18;;
37655;SDS011;23498;50.958;3.124;2023-05-07T11:54:48;8.35;;;5.18;;
37655;SDS011;23498;50.958;3.124;2023-05-07T11:57:14;7.88;;;4.90;;
37655;SDS011;23498;50.958;3.124;2023-05-07T11:59:40;7.60;;;5.75;;
37655;SDS011;23498;50.958;3.124;2023-05-07T12:02:07;5.85;;;3.90;;
37655;SDS011;23498;50.958;3.124;2023-05-07T12:04:33;6.97;;;3.80;;
37655;SDS011;23498;50.958;3.124;2023-05-07T12:06:59;8.48;;;3.55;;
37655;SDS011;23498;50.958;3.124;2023-05-07T12:09:26;5.90;;;3.40;;
37655;SDS011;23498;50.958;3.124;2023-05-07T12:11:52;9.20;;;3.97;;
37655;SDS011;23498;50.958;3.124;2023-05-07T12:14:18;6.30;;;3.13;;
37655;SDS011;23498;50.958;3.124;2023-05-07T12:16:44;4.45;;;2.70;;
37655;SDS011;23498;50.958;3.124;2023-05-07T12:19:11;4.72;;;3.00;;
37655;SDS011;23498;50.958;3.124;2023-05-07T12:21:37;4.80;;;3.42;;
37655;SDS011;23498;50.958;3.124;2023-05-07T12:24:04;4.85;;;3.40;;
37655;SDS011;23498;50.958;3.124;2023-05-07T12:26:30;5.20;;;3.13;;
37655;SDS011;23498;50.958;3.124;2023-05-07T12:28:57;7.45;;;4.13;;
37655;SDS011;23498;50.958;3.124;2023-05-07T12:31:25;7.65;;;4.70;;
37655;SDS011;23498;50.958;3.124;2023-05-07T12:33:51;9.40;;;4.53;;
37655;SDS011;23498;50.958;3.124;2023-05-07T12:36:18;7.32;;;4.10;;
37655;SDS011;23498;50.958;3.124;2023-05-07T12:38:46;6.35;;;3.63;;
37655;SDS011;23498;50.958;3.124;2023-05-07T12:41:15;8.15;;;4.50;;
37655;SDS011;23498;50.958;3.124;2023-05-07T12:43:43;9.15;;;5.32;;
37655;SDS011;23498;50.958;3.124;2023-05-07T12:46:10;11.35;;;6.32;;
37655;SDS011;23498;50.958;3.124;2023-05-07T12:48:38;10.05;;;6.03;;
37655;SDS011;23498;50.958;3.124;2023-05-07T12:51:05;9.27;;;6.00;;
37655;SDS011;23498;50.958;3.124;2023-05-07T12:53:32;11.18;;;7.25;;
37655;SDS011;23498;50.958;3.124;2023-05-07T12:55:59;13.95;;;7.32;;
37655;SDS011;23498;50.958;3.124;2023-05-07T12:58:29;11.18;;;7.53;;
37655;SDS011;23498;50.958;3.124;2023-05-07T13:00:56;13.23;;;8.70;;
37655;SDS011;23498;50.958;3.124;2023-05-07T13:03:29;23.38;;;15.20;;
37655;SDS011;23498;50.958;3.124;2023-05-07T13:05:57;13.93;;;8.85;;
37655;SDS011;23498;50.958;3.124;2023-05-07T13:08:27;14.43;;;7.88;;
37655;SDS011;23498;50.958;3.124;2023-05-07T13:10:54;12.60;;;8.30;;
37655;SDS011;23498;50.958;3.124;2023-05-07T13:13:20;12.88;;;7.78;;
37655;SDS011;23498;50.958;3.124;2023-05-07T13:15:47;13.07;;;9.90;;
37655;SDS011;23498;50.958;3.124;2023-05-07T13:18:13;19.83;;;11.07;;
37655;SDS011;23498;50.958;3.124;2023-05-07T13:20:39;13.93;;;8.70;;
37655;SDS011;23498;50.958;3.124;2023-05-07T13:23:05;16.13;;;9.00;;
37655;SDS011;23498;50.958;3.124;2023-05-07T13:25:31;14.50;;;6.55;;
37655;SDS011;23498;50.958;3.124;2023-05-07T13:27:58;10.65;;;5.88;;
37655;SDS011;23498;50.958;3.124;2023-05-07T13:30:24;13.13;;;7.38;;
37655;SDS011;23498;50.958;3.124;2023-05-07T13:32:50;11.65;;;6.35;;
37655;SDS011;23498;50.958;3.124;2023-05-07T13:35:17;13.63;;;8.18;;
37655;SDS011;23498;50.958;3.124;2023-05-07T13:37:43;13.82;;;8.48;;
37655;SDS011;23498;50.958;3.124;2023-05-07T13:40:09;9.15;;;5.93;;
37655;SDS011;23498;50.958;3.124;2023-05-07T13:42:35;12.25;;;7.20;;
37655;SDS011;23498;50.958;3.124;2023-05-07T13:45:01;11.38;;;7.50;;
37655;SDS011;23498;50.958;3.124;2023-05-07T13:47:30;8.40;;;5.88;;
37655;SDS011;23498;50.958;3.124;2023-05-07T13:49:56;8.13;;;5.28;;
37655;SDS011;23498;50.958;3.124;2023-05-07T13:52:22;9.90;;;5.32;;
37655;SDS011;23498;50.958;3.124;2023-05-07T13:54:48;7.82;;;5.07;;
37655;SDS011;23498;50.958;3.124;2023-05-07T13:57:14;8.57;;;5.28;;
37655;SDS011;23498;50.958;3.124;2023-05-07T13:59:40;8.23;;;5.30;;
37655;SDS011;23498;50.958;3.124;2023-05-07T14:02:06;9.90;;;5.70;;
37655;SDS011;23498;50.958;3.124;2023-05-07T14:04:34;9.23;;;4.88;;
37655;SDS011;23498;50.958;3.124;2023-05-07T14:07:00;8.30;;;5.05;;
37655;SDS011;23498;50.958;3.124;2023-05-07T14:09:26;9.75;;;4.90;;
37655;SDS011;23498;50.958;3.124;2023-05-07T14:11:52;8.45;;;5.78;;
37655;SDS011;23498;50.958;3.124;2023-05-07T14:14:18;9.10;;;5.57;;
37655;SDS011;23498;50.958;3.124;2023-05-07T14:16:44;9.23;;;5.35;;
37655;SDS011;23498;50.958;3.124;2023-05-07T14:19:14;9.55;;;5.20;;
37655;SDS011;23498;50.958;3.124;2023-05-07T14:21:40;7.68;;;5.75;;
37655;SDS011;23498;50.958;3.124;2023-05-07T14:24:07;7.63;;;5.32;;
37655;SDS011;23498;50.958;3.124;2023-05-07T14:26:36;8.82;;;5.13;;
37655;SDS011;23498;50.958;3.124;2023-05-07T14:29:02;8.73;;;4.82;;
37655;SDS011;23498;50.958;3.124;2023-05-07T14:31:28;6.93;;;4.35;;
37655;SDS011;23498;50.958;3.124;2023-05-07T14:33:55;7.53;;;4.82;;
37655;SDS011;23498;50.958;3.124;2023-05-07T14:36:22;9.27;;;4.65;;
37655;SDS011;23498;50.958;3.124;2023-05-07T14:38:51;7.22;;;4.60;;
37655;SDS011;23498;50.958;3.124;2023-05-07T14:41:17;8.60;;;4.50;;
37655;SDS011;23498;50.958;3.124;2023-05-07T14:43:43;5.82;;;4.05;;
37655;SDS011;23498;50.958;3.124;2023-05-07T14:46:15;7.95;;;3.88;;
37655;SDS011;23498;50.958;3.124;2023-05-07T14:48:41;7.43;;;4.00;;
37655;SDS011;23498;50.958;3.124;2023-05-07T14:51:07;6.88;;;3.78;;
37655;SDS011;23498;50.958;3.124;2023-05-07T14:53:33;7.85;;;4.20;;